createdAt,value
2018-10-06T00:01:36.811Z,6.10
2018-10-06T00:06:39.875Z,5.03
2018-10-06T00:11:42.955Z,4.13
2018-10-06T00:16:46.018Z,4.70
2018-10-06T00:21:49.121Z,5.90
2018-10-06T00:26:52.200Z,8.43
2018-10-06T00:31:55.272Z,7.43
2018-10-06T00:36:58.312Z,5.10
2018-10-06T00:42:01.374Z,9.90
2018-10-06T00:47:04.535Z,8.30
2018-10-06T00:52:07.661Z,5.33
2018-10-06T00:57:10.720Z,4.93
2018-10-06T01:02:14.120Z,5.00
2018-10-06T01:07:17.462Z,5.77
2018-10-06T01:12:21.935Z,6.37
2018-10-06T01:17:25.348Z,6.83
2018-10-06T01:22:28.767Z,10.90
2018-10-06T01:27:31.855Z,4.83
2018-10-06T01:32:34.917Z,8.07
2018-10-06T01:37:37.964Z,4.50
2018-10-06T01:42:41.020Z,6.27
2018-10-06T01:47:44.088Z,10.83
2018-10-06T01:52:47.141Z,10.37
2018-10-06T01:57:50.194Z,5.10
2018-10-06T02:02:53.235Z,5.47
2018-10-06T02:07:56.319Z,7.17
2018-10-06T02:12:59.355Z,7.03
2018-10-06T02:18:02.458Z,5.60
2018-10-06T02:23:05.739Z,6.77
2018-10-06T02:28:08.796Z,6.00
2018-10-06T02:33:11.886Z,4.83
2018-10-06T02:38:14.979Z,7.53
2018-10-06T02:43:18.052Z,7.87
2018-10-06T02:48:21.191Z,7.20
2018-10-06T02:53:24.271Z,7.67
2018-10-06T02:58:27.331Z,11.17
2018-10-06T03:03:30.416Z,7.80
2018-10-06T03:08:33.495Z,7.00
2018-10-06T03:13:36.818Z,10.57
2018-10-06T03:18:39.904Z,8.57
2018-10-06T03:23:42.958Z,9.53
2018-10-06T03:28:46.068Z,8.73
2018-10-06T03:33:49.144Z,16.57
2018-10-06T03:38:52.223Z,11.17
2018-10-06T03:43:55.315Z,15.83
2018-10-06T03:48:58.412Z,10.50
2018-10-06T04:02:01.612Z,13.33
2018-10-06T04:07:04.732Z,13.00
2018-10-06T04:12:07.858Z,11.13
2018-10-06T04:17:10.940Z,9.33
2018-10-06T04:22:14.034Z,9.30
2018-10-06T04:27:17.043Z,10.73
2018-10-06T04:32:20.136Z,9.17
2018-10-06T04:37:23.208Z,9.80
2018-10-06T04:42:26.479Z,11.93
2018-10-06T04:47:29.583Z,13.00
2018-10-06T04:52:32.654Z,19.00
2018-10-06T04:57:35.713Z,20.53
2018-10-06T05:02:38.911Z,9.60
2018-10-06T05:07:42.115Z,15.07
2018-10-06T05:12:45.223Z,12.10
2018-10-06T05:17:48.279Z,14.87
2018-10-06T05:22:51.684Z,14.37
2018-10-06T05:27:56.060Z,16.13
2018-10-06T05:33:00.263Z,12.67
2018-10-06T05:38:03.345Z,14.33
2018-10-06T05:43:06.518Z,11.60
2018-10-06T05:48:09.640Z,13.43
2018-10-06T05:53:12.696Z,14.20
2018-10-06T05:58:15.724Z,15.00
2018-10-06T06:03:18.795Z,17.47
2018-10-06T06:08:21.855Z,12.70
2018-10-06T06:13:24.903Z,14.93
2018-10-06T06:18:27.953Z,17.00
2018-10-06T06:23:31.016Z,21.03
2018-10-06T06:28:34.123Z,19.27
2018-10-06T06:33:37.198Z,15.10
2018-10-06T06:38:40.236Z,14.50
2018-10-06T06:43:43.360Z,20.37
2018-10-06T06:48:46.448Z,16.30
2018-10-06T06:53:49.488Z,17.57
2018-10-06T06:58:52.651Z,16.03
2018-10-06T07:03:55.699Z,20.03
2018-10-06T07:08:58.719Z,16.57
2018-10-06T07:14:01.751Z,15.77
2018-10-06T07:19:04.953Z,21.90
2018-10-06T07:24:08.001Z,19.43
2018-10-06T07:29:11.076Z,22.57
2018-10-06T07:34:14.123Z,26.13
2018-10-06T07:39:17.169Z,22.87
2018-10-06T07:44:20.214Z,22.10
2018-10-06T07:49:23.319Z,18.50
2018-10-06T07:54:26.356Z,18.03
2018-10-06T07:59:29.467Z,17.80
2018-10-06T08:04:32.864Z,15.03
2018-10-06T08:09:35.887Z,16.70
2018-10-06T08:14:38.938Z,19.33
2018-10-06T08:19:41.978Z,21.13
2018-10-06T08:24:45.032Z,26.87
2018-10-06T08:29:48.161Z,17.50
2018-10-06T08:34:51.206Z,17.57
2018-10-06T08:39:54.231Z,17.10
2018-10-06T08:44:57.306Z,16.77
2018-10-06T08:50:00.345Z,15.20
2018-10-06T08:55:03.403Z,15.00
2018-10-06T09:00:06.572Z,10.90
2018-10-06T09:05:09.632Z,13.47
2018-10-06T09:10:12.674Z,13.47
2018-10-06T09:15:15.706Z,13.87
2018-10-06T09:20:19.099Z,13.73
2018-10-06T09:25:22.173Z,16.03
2018-10-06T09:30:25.227Z,10.50
2018-10-06T09:35:28.259Z,14.13
2018-10-06T09:40:31.300Z,16.33
2018-10-06T09:45:34.347Z,9.90
2018-10-06T09:50:37.391Z,10.47
2018-10-06T09:55:40.550Z,9.43
2018-10-06T10:00:49.075Z,9.43
2018-10-06T10:05:54.171Z,7.40
2018-10-06T10:10:57.270Z,9.70
2018-10-06T10:16:00.323Z,18.03
2018-10-06T10:21:03.420Z,6.20
2018-10-06T10:26:06.687Z,11.53
2018-10-06T10:31:09.819Z,27.33
2018-10-06T10:36:13.018Z,10.03
2018-10-06T10:41:16.940Z,10.43
2018-10-06T10:46:20.372Z,8.30
2018-10-06T10:51:25.085Z,15.10
2018-10-06T10:56:29.061Z,12.60
2018-10-06T11:01:32.965Z,9.73
2018-10-06T11:06:36.039Z,9.27
2018-10-06T11:11:40.222Z,7.90
2018-10-06T11:16:44.035Z,6.77
2018-10-06T11:21:47.577Z,9.03
2018-10-06T11:26:50.656Z,7.50
2018-10-06T11:31:53.816Z,11.00
2018-10-06T11:36:57.030Z,5.23
2018-10-06T11:42:00.307Z,6.33
2018-10-06T11:47:03.492Z,7.80
2018-10-06T11:52:07.519Z,4.40
2018-10-06T11:57:10.699Z,8.70
2018-10-06T12:02:13.820Z,8.23
2018-10-06T12:07:16.939Z,6.50
2018-10-06T12:12:20.064Z,4.10
2018-10-06T12:17:23.240Z,5.60
2018-10-06T12:22:26.308Z,6.33
2018-10-06T12:27:29.381Z,3.50
2018-10-06T12:32:32.448Z,5.40
2018-10-06T12:37:35.495Z,15.20
2018-10-06T12:42:39.056Z,5.77
2018-10-06T12:47:42.369Z,5.73
2018-10-06T12:52:45.468Z,3.30
2018-10-06T12:57:48.549Z,23.20
2018-10-06T13:02:51.692Z,6.57
2018-10-06T13:07:54.863Z,6.50
2018-10-06T13:12:57.976Z,4.10
2018-10-06T13:18:02.387Z,4.83
2018-10-06T13:23:05.575Z,3.63
2018-10-06T13:28:08.693Z,5.40
2018-10-06T13:33:11.788Z,3.23
2018-10-06T13:38:14.895Z,7.97
2018-10-06T13:43:18.004Z,3.07
2018-10-06T13:48:21.178Z,4.50
2018-10-06T13:53:24.290Z,5.60
2018-10-06T13:58:27.367Z,4.00
2018-10-06T14:03:30.469Z,5.03
2018-10-06T14:08:33.556Z,4.60
2018-10-06T14:13:36.659Z,2.40
2018-10-06T14:18:39.767Z,6.77
2018-10-06T14:23:42.816Z,6.17
2018-10-06T14:28:45.871Z,4.50
2018-10-06T14:33:48.937Z,10.53
2018-10-06T14:38:52.011Z,2.90
2018-10-06T14:43:55.072Z,4.83
2018-10-06T14:48:58.167Z,97.83
2018-10-06T14:54:01.259Z,24.40
2018-10-06T14:59:04.503Z,15.83
2018-10-06T15:04:07.584Z,25.63
2018-10-06T15:09:11.280Z,23.40
2018-10-06T15:14:14.352Z,7.97
2018-10-06T15:19:17.423Z,18.83
2018-10-06T15:24:20.563Z,13.17
2018-10-06T15:29:23.645Z,5.57
2018-10-06T15:34:26.703Z,3.80
2018-10-06T15:39:29.777Z,6.43
2018-10-06T15:44:32.847Z,5.93
2018-10-06T15:49:35.911Z,4.03
2018-10-06T15:54:38.999Z,9.83
2018-10-06T15:59:42.133Z,5.83
2018-10-06T16:04:45.304Z,4.40
2018-10-06T16:09:48.404Z,15.53
2018-10-06T16:14:51.511Z,6.00
2018-10-06T16:19:54.563Z,7.20
2018-10-06T16:24:57.619Z,8.70
2018-10-06T16:30:00.703Z,5.53
2018-10-06T16:35:03.904Z,7.13
2018-10-06T16:40:07.048Z,4.93
2018-10-06T16:45:10.203Z,11.13
2018-10-06T16:50:13.299Z,8.50
2018-10-06T16:55:16.352Z,5.60
2018-10-06T17:00:19.521Z,5.67
2018-10-06T17:05:22.610Z,4.20
2018-10-06T17:10:25.655Z,7.40
2018-10-06T17:15:28.759Z,4.40
2018-10-06T17:20:31.826Z,4.53
2018-10-06T17:25:34.983Z,5.20
2018-10-06T17:30:38.066Z,5.93
2018-10-06T17:35:41.137Z,12.10
2018-10-06T17:40:44.233Z,16.93
2018-10-06T17:45:47.336Z,27.83
2018-10-06T17:50:50.599Z,6.30
2018-10-06T17:55:53.496Z,6.73
2018-10-06T18:00:56.684Z,6.80
2018-10-06T18:05:59.717Z,9.30
2018-10-06T18:11:02.817Z,4.63
2018-10-06T18:16:06.027Z,4.73
2018-10-06T18:21:11.686Z,4.20
2018-10-06T18:26:15.402Z,9.33
2018-10-06T18:31:18.652Z,6.50
2018-10-06T18:36:22.117Z,17.10
2018-10-06T18:41:25.151Z,8.13
2018-10-06T18:46:28.400Z,7.73
2018-10-06T18:51:31.544Z,6.23
2018-10-06T18:56:34.625Z,7.60
2018-10-06T19:01:37.675Z,4.80
2018-10-06T19:06:40.782Z,18.97
2018-10-06T19:11:43.910Z,6.57
2018-10-06T19:16:46.965Z,6.90
2018-10-06T19:21:50.134Z,7.80
2018-10-06T19:26:53.192Z,7.23
2018-10-06T19:31:56.255Z,6.03
2018-10-06T19:36:59.353Z,14.70
2018-10-06T19:42:02.432Z,17.90
2018-10-06T19:47:05.556Z,11.23
2018-10-06T19:52:08.607Z,9.73
2018-10-06T19:57:11.703Z,13.67
2018-10-06T20:02:14.752Z,12.73
2018-10-06T20:07:17.825Z,30.23
2018-10-06T20:12:20.993Z,18.40
2018-10-06T20:17:23.996Z,15.27
2018-10-06T20:22:27.036Z,12.50
2018-10-06T20:27:30.108Z,19.93
2018-10-06T20:32:33.183Z,9.70
2018-10-06T20:37:36.270Z,10.63
2018-10-06T20:42:39.425Z,10.07
2018-10-06T20:47:42.544Z,18.30
2018-10-06T20:52:45.595Z,15.97
2018-10-06T20:57:48.687Z,13.20
2018-10-06T21:02:51.740Z,13.00
2018-10-06T21:07:54.772Z,9.80
2018-10-06T21:12:57.853Z,9.73
2018-10-06T21:18:00.944Z,10.93
2018-10-06T21:23:03.992Z,10.80
2018-10-06T21:28:07.220Z,13.60
2018-10-06T21:33:10.278Z,13.40
2018-10-06T21:38:13.332Z,11.10
2018-10-06T21:43:16.378Z,9.97
2018-10-06T21:48:19.445Z,12.80
2018-10-06T21:53:22.572Z,12.53
2018-10-06T21:58:25.624Z,11.33
2018-10-06T22:03:28.844Z,21.03
2018-10-06T22:08:31.952Z,11.80
2018-10-06T22:13:35.056Z,15.50
2018-10-06T22:18:38.131Z,18.80
2018-10-06T22:23:41.231Z,15.87
2018-10-06T22:28:44.323Z,18.30
2018-10-06T22:33:47.375Z,15.93
2018-10-06T22:38:50.460Z,19.33
2018-10-06T22:43:53.528Z,24.73
2018-10-06T22:48:56.631Z,28.47
2018-10-06T23:05:26.201Z,32.53
2018-10-06T23:10:29.236Z,41.33
2018-10-06T23:15:32.279Z,39.43
2018-10-06T23:20:35.416Z,42.33
2018-10-06T23:25:38.462Z,44.57
2018-10-06T23:30:41.504Z,45.60
2018-10-06T23:35:44.531Z,45.20
2018-10-06T23:40:47.588Z,50.20
2018-10-06T23:45:50.646Z,49.47
2018-10-06T23:50:53.763Z,65.87
2018-10-06T23:55:56.904Z,56.57
